Time;durP1;ratioP1;P1;durP2;ratioP2;P2;SDS_P1;SDS_P2;PMS_P1;PMS_P2;Temp;Humidity;BMP_temperature;BMP_pressure;BME280_temperature;BME280_humidity;BME280_pressure;Samples;Min_cycle;Max_cycle;Signal;HPM_P1;HPM_P2
2023/10/07 00:01:24;;;;;;;35.70;22.58;;;11.50;99.90;;;;;;4956075;29;20475;-73
2023/10/07 00:03:53;;;;;;;34.53;20.42;;;11.50;99.90;;;;;;4956551;29;20062;-73
2023/10/07 00:06:25;;;;;;;33.25;20.63;;;11.50;99.90;;;;;;4953830;29;20030;-74
2023/10/07 00:08:51;;;;;;;37.17;22.50;;;11.40;99.90;;;;;;4955739;28;20029;-74
2023/10/07 00:11:17;;;;;;;37.17;22.15;;;11.40;99.90;;;;;;4955648;29;20371;-73
2023/10/07 00:13:43;;;;;;;40.65;22.63;;;11.20;99.90;;;;;;4955827;29;20042;-72
2023/10/07 00:16:17;;;;;;;38.75;23.15;;;11.20;99.90;;;;;;4955761;29;20094;-74
2023/10/07 00:18:43;;;;;;;39.45;22.15;;;11.30;99.90;;;;;;4952321;29;20487;-72
2023/10/07 00:21:15;;;;;;;34.15;20.23;;;11.30;99.90;;;;;;4955644;29;20360;-72
2023/10/07 00:23:42;;;;;;;35.20;20.65;;;11.30;99.90;;;;;;4955592;29;20023;-73
2023/10/07 00:26:09;;;;;;;37.92;20.50;;;11.30;99.90;;;;;;4955451;29;20023;-73
2023/10/07 00:28:44;;;;;;;30.95;19.73;;;11.20;99.90;;;;;;4955529;29;20035;-73
2023/10/07 00:31:14;;;;;;;31.00;20.27;;;11.20;99.90;;;;;;4953584;29;20035;-73
2023/10/07 00:34:02;;;;;;;29.40;19.58;;;11.20;99.90;;;;;;4951046;29;20037;-73
2023/10/07 00:38:59;;;;;;;33.83;18.75;;;11.20;99.90;;;;;;4954274;29;20027;-73
2023/10/07 00:41:27;;;;;;;34.67;18.98;;;11.10;99.90;;;;;;4950774;29;20019;-73
2023/10/07 00:43:59;;;;;;;27.83;16.23;;;11.10;99.90;;;;;;4954435;29;20336;-73
2023/10/07 00:46:28;;;;;;;27.95;15.10;;;11.10;99.90;;;;;;4954954;29;20067;-73
2023/10/07 00:49:00;;;;;;;24.25;15.05;;;11.10;99.90;;;;;;4953911;29;20046;-73
2023/10/07 00:51:36;;;;;;;24.35;15.38;;;11.10;99.90;;;;;;4955034;29;20031;-73
2023/10/07 00:57:10;;;;;;;22.75;13.45;;;10.90;99.90;;;;;;4908990;29;20031;-74
2023/10/07 00:59:40;;;;;;;23.65;13.13;;;10.90;99.90;;;;;;4954807;29;20031;-73
2023/10/07 01:02:14;;;;;;;22.67;13.48;;;10.90;99.90;;;;;;4950773;29;20097;-73
2023/10/07 01:04:40;;;;;;;21.85;13.95;;;11.00;99.90;;;;;;4954296;29;20031;-73
2023/10/07 01:07:19;;;;;;;21.13;12.50;;;10.90;99.90;;;;;;4923686;29;20042;-73
2023/10/07 01:09:58;;;;;;;23.80;14.05;;;10.90;99.90;;;;;;4954399;29;20638;-73
2023/10/07 01:12:25;;;;;;;21.65;12.73;;;10.90;99.90;;;;;;4954588;29;20090;-74
2023/10/07 01:14:52;;;;;;;27.17;14.07;;;10.90;99.90;;;;;;4954634;29;20022;-73
2023/10/07 01:17:26;;;;;;;22.80;12.20;;;10.80;99.90;;;;;;4953145;29;20032;-73
2023/10/07 01:19:54;;;;;;;27.30;15.23;;;10.90;99.90;;;;;;4952553;28;20023;-73
2023/10/07 01:22:24;;;;;;;30.75;17.05;;;10.80;99.90;;;;;;4954636;29;20019;-73
2023/10/07 01:24:50;;;;;;;61.58;35.60;;;10.80;99.90;;;;;;4950899;29;20073;-73
2023/10/07 01:30:13;;;;;;;35.55;18.02;;;10.80;99.90;;;;;;4954314;29;20019;-74
2023/10/07 01:33:02;;;;;;;39.47;22.70;;;10.70;99.90;;;;;;4952576;29;20051;-73
2023/10/07 01:35:39;;;;;;;32.67;18.30;;;10.70;99.90;;;;;;4952935;29;20023;-73
2023/10/07 01:38:08;;;;;;;53.80;31.10;;;10.70;99.90;;;;;;4953096;29;20027;-74
2023/10/07 01:43:16;;;;;;;47.17;26.38;;;10.70;99.90;;;;;;4953760;29;20113;-73
2023/10/07 01:45:42;;;;;;;43.13;26.10;;;10.80;99.90;;;;;;4954033;29;20091;-74
2023/10/07 01:48:08;;;;;;;49.35;25.38;;;10.70;99.90;;;;;;4953011;29;20063;-74
2023/10/07 01:50:41;;;;;;;32.28;18.60;;;10.70;99.90;;;;;;4952436;29;20015;-73
2023/10/07 01:53:07;;;;;;;26.00;14.68;;;10.60;99.90;;;;;;4952754;29;20062;-73
2023/10/07 01:55:43;;;;;;;19.80;10.70;;;10.60;99.90;;;;;;4954245;29;20027;-73
2023/10/07 01:58:13;;;;;;;21.65;11.27;;;10.70;99.90;;;;;;4949029;29;20036;-73
2023/10/07 02:00:49;;;;;;;22.60;13.50;;;10.60;99.90;;;;;;4952896;29;20483;-73
2023/10/07 02:03:23;;;;;;;21.30;12.70;;;10.60;99.90;;;;;;4949702;29;20042;-73
2023/10/07 02:05:50;;;;;;;21.90;12.75;;;10.50;99.90;;;;;;4952382;29;20102;-72
2023/10/07 02:08:22;;;;;;;21.48;11.38;;;10.50;99.90;;;;;;4948396;29;20027;-73
2023/10/07 02:10:49;;;;;;;19.15;10.02;;;10.40;99.90;;;;;;4949674;29;20127;-73
2023/10/07 02:13:20;;;;;;;22.10;12.25;;;;;;;;;;4934474;29;20035;-73
2023/10/07 02:15:51;;;;;;;26.98;13.13;;;10.50;99.90;;;;;;4952954;29;20027;-73
2023/10/07 02:18:18;;;;;;;17.88;10.10;;;10.50;99.90;;;;;;4953957;29;20036;-73
2023/10/07 02:20:49;;;;;;;25.45;13.80;;;10.50;99.90;;;;;;4952845;29;20088;-73
2023/10/07 02:23:37;;;;;;;19.58;12.88;;;10.50;99.90;;;;;;4954012;29;20056;-73
2023/10/07 02:26:14;;;;;;;18.02;10.45;;;10.60;99.90;;;;;;4952446;29;20028;-73
2023/10/07 02:28:40;;;;;;;20.70;10.02;;;10.50;99.90;;;;;;4951948;29;20086;-73
2023/10/07 02:31:15;;;;;;;22.58;11.05;;;10.40;99.90;;;;;;4952590;28;20027;-73
2023/10/07 02:33:44;;;;;;;20.77;11.05;;;10.40;99.90;;;;;;4957848;29;20043;-73
2023/10/07 02:36:37;;;;;;;18.38;10.25;;;10.40;99.90;;;;;;4937116;29;20046;-73
2023/10/07 02:39:18;;;;;;;21.92;10.70;;;10.40;99.90;;;;;;4952268;29;20544;-73
2023/10/07 02:41:48;;;;;;;18.83;9.80;;;10.40;99.90;;;;;;4957441;29;20023;-73
2023/10/07 02:44:17;;;;;;;20.38;11.52;;;10.40;99.90;;;;;;4957360;29;20023;-73
2023/10/07 02:46:52;;;;;;;19.00;11.90;;;10.30;99.90;;;;;;4956518;29;20070;-73
2023/10/07 02:49:22;;;;;;;19.95;11.32;;;10.30;99.90;;;;;;4956519;29;20031;-73
2023/10/07 02:51:57;;;;;;;21.00;12.55;;;10.30;99.90;;;;;;4955082;29;20151;-73
2023/10/07 02:54:32;;;;;;;23.55;12.35;;;10.20;99.90;;;;;;4957273;29;20030;-73
2023/10/07 02:57:24;;;;;;;21.73;12.27;;;10.10;99.90;;;;;;4957235;29;20031;-73
2023/10/07 03:00:00;;;;;;;24.92;13.52;;;10.10;99.90;;;;;;4957159;29;20047;-73
2023/10/07 03:02:37;;;;;;;20.95;13.25;;;10.00;99.90;;;;;;4956868;29;20176;-73
2023/10/07 03:07:41;;;;;;;25.05;12.32;;;10.00;99.90;;;;;;4955245;29;20502;-72
2023/10/07 03:10:29;;;;;;;21.73;12.05;;;10.10;99.90;;;;;;4956399;29;20051;-72
2023/10/07 03:12:57;;;;;;;21.05;10.60;;;10.10;99.90;;;;;;4954113;29;20031;-72
2023/10/07 03:18:05;;;;;;;16.85;9.55;;;10.10;99.90;;;;;;4953499;29;20039;-72
2023/10/07 03:20:45;;;;;;;16.25;10.18;;;10.10;99.90;;;;;;4955526;29;20402;-73
2023/10/07 03:23:14;;;;;;;18.63;9.65;;;10.10;99.90;;;;;;4956904;29;20059;-72
2023/10/07 03:28:17;;;;;;;16.42;8.20;;;10.20;99.90;;;;;;4956515;29;20035;-73
2023/10/07 03:30:51;;;;;;;17.33;9.65;;;10.20;99.90;;;;;;4956549;29;20034;-72
2023/10/07 03:33:32;;;;;;;16.50;8.77;;;10.30;99.90;;;;;;4955926;29;20112;-72
2023/10/07 03:38:29;;;;;;;15.27;7.75;;;10.10;99.90;;;;;;4955528;29;20034;-73
2023/10/07 03:40:58;;;;;;;16.52;8.68;;;10.10;99.90;;;;;;4956266;28;20023;-73
2023/10/07 03:43:26;;;;;;;17.92;9.13;;;10.10;99.90;;;;;;4956195;28;20483;-73
2023/10/07 03:45:55;;;;;;;21.65;8.98;;;10.20;99.90;;;;;;4957007;29;20352;-72
2023/10/07 03:48:24;;;;;;;19.30;9.90;;;10.10;99.90;;;;;;4956741;29;20062;-73
2023/10/07 03:51:05;;;;;;;19.27;9.07;;;10.20;99.90;;;;;;4956704;29;20035;-73
2023/10/07 03:53:32;;;;;;;20.17;9.15;;;10.20;99.90;;;;;;4956271;29;20031;-74
2023/10/07 03:56:06;;;;;;;17.42;9.85;;;10.10;99.90;;;;;;4956914;29;20106;-74
2023/10/07 03:58:34;;;;;;;18.58;10.35;;;10.10;99.90;;;;;;4956717;29;20040;-74
2023/10/07 04:01:16;;;;;;;20.35;9.25;;;10.00;99.90;;;;;;4956642;29;20023;-75
2023/10/07 04:03:46;;;;;;;20.85;10.50;;;10.00;99.90;;;;;;4956890;29;20118;-74
2023/10/07 04:06:20;;;;;;;18.30;9.48;;;10.00;99.90;;;;;;4956595;29;20086;-73
2023/10/07 04:08:52;;;;;;;23.00;9.18;;;9.90;99.90;;;;;;4945887;29;20036;-74
2023/10/07 04:11:28;;;;;;;22.15;10.40;;;9.70;99.90;;;;;;4955524;29;20038;-73
2023/10/07 04:13:59;;;;;;;20.92;10.55;;;9.60;99.90;;;;;;4956307;29;20039;-73
2023/10/07 04:16:25;;;;;;;20.35;10.32;;;9.70;99.90;;;;;;4956723;29;20023;-72
2023/10/07 04:18:53;;;;;;;21.25;10.13;;;9.60;99.90;;;;;;4956296;29;20447;-75
2023/10/07 04:21:23;;;;;;;20.67;10.15;;;9.70;99.90;;;;;;4956636;29;20037;-74
2023/10/07 04:23:49;;;;;;;17.50;9.25;;;9.70;99.90;;;;;;4956060;29;20031;-74
2023/10/07 04:26:19;;;;;;;19.52;9.38;;;9.70;99.90;;;;;;4956266;29;20024;-74
2023/10/07 04:28:49;;;;;;;19.02;9.60;;;9.70;99.90;;;;;;4948046;29;20035;-74
2023/10/07 04:31:16;;;;;;;18.20;10.10;;;9.70;99.90;;;;;;4954089;29;20031;-74
2023/10/07 04:33:53;;;;;;;20.88;10.32;;;9.60;99.90;;;;;;4955562;29;20038;-74
2023/10/07 04:36:54;;;;;;;23.50;8.82;;;9.60;99.90;;;;;;4956263;29;20434;-74
2023/10/07 04:39:18;;;;;;;19.60;10.23;;;9.50;99.90;;;;;;4955268;29;20082;-75
2023/10/07 04:41:44;;;;;;;20.70;9.68;;;9.60;99.90;;;;;;4955263;29;20035;-74
2023/10/07 04:52:30;;;;;;;18.42;9.73;;;9.40;99.90;;;;;;4947696;29;20043;-74
2023/10/07 04:55:00;;;;;;;16.90;9.00;;;9.50;99.90;;;;;;4954910;28;20053;-73
2023/10/07 04:57:39;;;;;;;25.73;9.45;;;9.40;99.90;;;;;;4948380;29;20046;-74
2023/10/07 05:00:17;;;;;;;17.25;8.35;;;9.40;99.90;;;;;;4953083;29;20035;-74
2023/10/07 05:02:43;;;;;;;24.52;8.48;;;9.30;99.90;;;;;;4955560;29;20031;-74
2023/10/07 05:05:13;;;;;;;19.45;9.43;;;9.40;99.90;;;;;;4946597;29;20379;-74
2023/10/07 05:07:43;;;;;;;17.00;9.38;;;9.40;99.90;;;;;;4951032;29;20490;-74
2023/10/07 05:10:09;;;;;;;17.25;8.80;;;9.70;99.90;;;;;;4954632;29;20513;-74
2023/10/07 05:12:35;;;;;;;17.33;8.13;;;10.40;99.90;;;;;;4954540;29;20049;-74
2023/10/07 05:15:05;;;;;;;19.92;9.35;;;10.70;99.90;;;;;;4950119;29;20023;-74
2023/10/07 05:17:36;;;;;;;19.92;9.13;;;11.00;99.90;;;;;;4953945;29;20110;-73
2023/10/07 05:20:06;;;;;;;22.75;9.50;;;11.50;99.90;;;;;;4954702;29;20519;-73
2023/10/07 05:22:32;;;;;;;16.95;8.32;;;11.90;99.90;;;;;;4954515;28;20034;-74
2023/10/07 05:25:01;;;;;;;16.55;9.23;;;12.40;99.90;;;;;;4954440;28;20106;-73
2023/10/07 05:27:27;;;;;;;21.42;8.63;;;12.90;99.90;;;;;;4954347;28;20383;-73
2023/10/07 05:29:53;;;;;;;15.32;7.82;;;13.10;99.90;;;;;;4953726;28;20029;-73
2023/10/07 05:32:19;;;;;;;18.75;10.02;;;13.60;99.90;;;;;;4953591;28;20457;-73
2023/10/07 05:34:48;;;;;;;21.63;9.20;;;13.80;99.90;;;;;;4953789;29;20028;-74
2023/10/07 05:37:15;;;;;;;19.42;9.75;;;13.90;99.90;;;;;;4954828;29;20431;-74
2023/10/07 05:39:41;;;;;;;19.58;10.23;;;14.50;99.90;;;;;;4951961;29;20467;-75
2023/10/07 05:42:10;;;;;;;21.70;9.75;;;15.00;99.90;;;;;;4949047;29;20479;-74
2023/10/07 05:44:37;;;;;;;18.08;9.02;;;15.30;99.90;;;;;;4945317;29;20016;-72
2023/10/07 05:47:05;;;;;;;17.88;9.88;;;15.40;99.90;;;;;;4948433;29;20055;-73
2023/10/07 05:49:32;;;;;;;17.02;9.25;;;15.80;99.70;;;;;;4950315;29;20031;-72
2023/10/07 05:51:58;;;;;;;17.85;8.20;;;16.00;98.90;;;;;;4942044;29;20035;-72
2023/10/07 05:54:28;;;;;;;20.25;8.68;;;16.30;98.10;;;;;;4943446;29;20019;-73
2023/10/07 05:56:58;;;;;;;16.83;8.85;;;16.60;98.20;;;;;;4953379;29;20095;-72
2023/10/07 05:59:24;;;;;;;18.83;9.80;;;16.50;98.20;;;;;;4943905;29;20031;-72
2023/10/07 06:01:50;;;;;;;16.55;8.93;;;16.00;98.10;;;;;;4942232;29;20023;-72
2023/10/07 06:04:17;;;;;;;19.05;9.98;;;15.20;99.10;;;;;;4948311;29;20416;-72
2023/10/07 06:06:43;;;;;;;19.98;9.38;;;14.80;99.90;;;;;;4934771;29;20383;-72
2023/10/07 06:09:14;;;;;;;16.70;8.50;;;14.50;99.90;;;;;;4948755;29;20114;-72
2023/10/07 06:11:42;;;;;;;17.02;8.27;;;14.40;99.90;;;;;;4948323;29;20028;-72
2023/10/07 06:14:10;;;;;;;18.20;7.22;;;14.30;99.90;;;;;;4952934;28;20038;-73
2023/10/07 06:16:46;;;;;;;17.25;7.07;;;14.20;99.90;;;;;;4955224;29;20039;-73
2023/10/07 06:19:13;;;;;;;18.48;7.15;;;14.20;99.90;;;;;;4951670;29;20027;-72
2023/10/07 06:21:50;;;;;;;17.85;7.55;;;14.40;99.90;;;;;;4948199;29;20031;-72
2023/10/07 06:24:21;;;;;;;14.48;7.13;;;14.50;99.90;;;;;;4949449;28;20424;-73
2023/10/07 06:26:48;;;;;;;15.25;6.47;;;14.60;99.90;;;;;;4952643;29;20499;-72
2023/10/07 06:29:20;;;;;;;14.90;7.78;;;14.70;99.90;;;;;;4954556;29;20032;-73
2023/10/07 06:31:55;;;;;;;14.13;7.10;;;14.80;99.90;;;;;;4955565;28;20077;-72
2023/10/07 06:34:32;;;;;;;20.88;7.05;;;14.90;99.90;;;;;;4950540;29;20058;-73
2023/10/07 06:36:59;;;;;;;16.00;6.57;;;14.70;99.90;;;;;;4954608;29;20424;-72
2023/10/07 06:39:27;;;;;;;14.38;6.93;;;14.80;99.90;;;;;;4954638;29;20079;-73
2023/10/07 06:41:57;;;;;;;12.43;5.93;;;15.00;99.90;;;;;;4960968;29;20102;-73
2023/10/07 06:44:30;;;;;;;19.83;7.18;;;15.10;99.90;;;;;;4939754;29;20098;-72
2023/10/07 06:46:56;;;;;;;15.85;8.88;;;15.20;99.90;;;;;;4930494;29;20521;-72
2023/10/07 06:49:22;;;;;;;19.90;8.43;;;15.30;99.90;;;;;;4946105;29;20035;-73
2023/10/07 06:51:56;;;;;;;19.48;7.78;;;15.50;99.90;;;;;;4950035;29;20030;-73
2023/10/07 06:54:23;;;;;;;21.48;8.43;;;15.70;99.90;;;;;;4952569;28;20030;-73
2023/10/07 06:56:54;;;;;;;23.20;10.35;;;15.70;99.90;;;;;;4946539;29;20474;-73
2023/10/07 06:59:27;;;;;;;19.13;9.57;;;15.70;99.90;;;;;;4945443;29;20027;-73
2023/10/07 07:01:55;;;;;;;23.92;12.05;;;15.70;99.90;;;;;;4960243;29;20031;-73
2023/10/07 07:04:22;;;;;;;21.45;10.75;;;15.60;99.90;;;;;;4960630;29;20101;-73
2023/10/07 07:09:50;;;;;;;19.92;10.50;;;15.70;99.90;;;;;;4952626;29;20035;-73
2023/10/07 07:12:22;;;;;;;23.27;11.35;;;15.70;99.90;;;;;;4960463;29;20490;-72
2023/10/07 07:14:52;;;;;;;;;;;15.50;99.90;;;;;;4960230;29;20029;-72
2023/10/07 07:17:29;;;;;;;26.23;10.82;;;15.40;99.90;;;;;;4947358;28;19914;-72
2023/10/07 07:22:44;;;;;;;19.33;10.23;;;15.60;99.90;;;;;;4957009;29;20039;-72
2023/10/07 07:27:53;;;;;;;28.52;14.40;;;15.60;99.90;;;;;;4946373;29;20028;-72
2023/10/07 07:30:29;;;;;;;24.13;12.82;;;15.80;99.90;;;;;;4957129;29;20475;-74
2023/10/07 07:33:07;;;;;;;41.13;21.48;;;15.90;99.90;;;;;;4957276;29;20049;-74
2023/10/07 07:35:41;;;;;;;42.92;20.75;;;16.20;99.90;;;;;;4957235;29;20074;-72
2023/10/07 07:38:17;;;;;;;32.95;19.27;;;16.30;99.90;;;;;;4940914;29;20047;-73
2023/10/07 07:40:43;;;;;;;30.52;19.38;;;16.60;99.90;;;;;;4952578;29;20031;-72
2023/10/07 07:43:13;;;;;;;28.63;15.43;;;16.90;99.90;;;;;;4950412;29;20032;-71
2023/10/07 07:45:40;;;;;;;22.75;12.98;;;17.20;99.90;;;;;;4950640;29;20479;-72
2023/10/07 07:48:07;;;;;;;20.45;9.95;;;17.20;99.90;;;;;;4948947;29;20059;-71
2023/10/07 07:50:39;;;;;;;19.98;10.75;;;17.20;99.90;;;;;;4956675;29;20483;-73
2023/10/07 07:53:09;;;;;;;27.27;15.27;;;17.30;99.90;;;;;;4956343;29;20035;-74
2023/10/07 07:55:43;;;;;;;29.85;19.52;;;17.40;99.90;;;;;;4949836;29;20507;-72
2023/10/07 07:58:11;;;;;;;24.70;15.30;;;17.30;99.80;;;;;;4950090;29;20406;-72
2023/10/07 08:00:44;;;;;;;31.00;17.33;;;17.20;99.90;;;;;;4953760;29;20471;-72
2023/10/07 08:03:11;;;;;;;;;;;17.60;99.90;;;;;;4957362;29;20050;-75
2023/10/07 08:05:41;;;;;;;24.45;12.70;;;18.00;99.90;;;;;;4956655;29;20050;-74
2023/10/07 08:08:18;;;;;;;21.33;9.75;;;17.60;99.40;;;;;;4956681;29;20047;-73
2023/10/07 08:10:48;;;;;;;20.42;10.75;;;17.90;99.90;;;;;;4956462;29;20034;-73
2023/10/07 08:13:18;;;;;;;25.80;15.45;;;18.00;98.10;;;;;;4956567;29;20043;-73
2023/10/07 08:15:47;;;;;;;29.25;16.60;;;18.20;99.10;;;;;;4948250;28;20028;-74
2023/10/07 08:18:13;;;;;;;33.15;18.80;;;18.40;99.30;;;;;;4941825;29;20039;-73
2023/10/07 08:20:44;;;;;;;32.63;19.83;;;18.60;99.40;;;;;;4941881;29;20111;-72
2023/10/07 08:23:29;;;;;;;32.08;20.63;;;18.80;99.30;;;;;;4953526;29;20031;-74
2023/10/07 08:26:10;;;;;;;25.77;15.88;;;19.00;98.80;;;;;;4950689;29;20086;-74
2023/10/07 08:31:37;;;;;;;51.70;35.20;;;19.30;97.10;;;;;;4956109;29;20042;-73
2023/10/07 08:36:37;;;;;;;39.63;26.80;;;19.40;96.50;;;;;;4956092;29;20031;-73
2023/10/07 08:39:10;;;;;;;33.13;19.75;;;19.60;95.70;;;;;;4956492;29;20534;-73
2023/10/07 08:41:50;;;;;;;35.58;17.15;;;19.80;95.00;;;;;;4955775;29;20031;-72
2023/10/07 08:44:16;;;;;;;27.65;15.45;;;19.90;94.40;;;;;;4956018;29;20027;-73
2023/10/07 08:46:54;;;;;;;22.60;11.70;;;20.00;95.40;;;;;;4955627;29;20047;-74
2023/10/07 08:49:27;;;;;;;22.98;10.32;;;20.10;95.60;;;;;;4955864;29;20118;-73
2023/10/07 08:51:54;;;;;;;19.95;10.60;;;20.20;95.30;;;;;;4955734;29;20035;-73
2023/10/07 08:54:31;;;;;;;18.33;9.93;;;20.40;94.60;;;;;;4955967;29;20024;-73
2023/10/07 08:57:02;;;;;;;19.42;9.70;;;20.40;93.80;;;;;;4955512;29;20042;-73
2023/10/07 08:59:31;;;;;;;19.83;11.32;;;20.30;93.40;;;;;;4943136;29;20032;-73
2023/10/07 09:01:57;;;;;;;15.32;9.00;;;20.50;93.90;;;;;;4952534;29;20074;-73
2023/10/07 09:04:32;;;;;;;18.08;8.85;;;20.30;92.70;;;;;;4953528;29;20054;-72
2023/10/07 09:07:08;;;;;;;23.17;11.70;;;20.60;93.60;;;;;;4955399;29;20032;-74
2023/10/07 09:09:38;;;;;;;20.00;10.10;;;20.70;93.60;;;;;;4955502;29;20505;-74
2023/10/07 09:12:14;;;;;;;27.92;11.80;;;20.90;94.60;;;;;;4955337;29;20035;-74
2023/10/07 09:14:51;;;;;;;24.70;11.20;;;21.00;93.30;;;;;;4955467;29;20027;-74
2023/10/07 09:17:22;;;;;;;16.73;9.65;;;20.90;92.90;;;;;;4955113;29;20035;-74
2023/10/07 09:19:52;;;;;;;19.33;10.60;;;20.90;93.40;;;;;;4955402;29;20024;-74
2023/10/07 09:22:24;;;;;;;23.80;11.38;;;21.10;94.30;;;;;;4955287;29;20454;-73
2023/10/07 09:24:54;;;;;;;20.90;10.13;;;21.30;93.50;;;;;;4955385;29;20032;-74
2023/10/07 09:27:38;;;;;;;18.13;8.13;;;21.20;92.20;;;;;;4954718;28;20058;-73
2023/10/07 09:32:55;;;;;;;19.08;6.85;;;21.10;91.80;;;;;;4954536;29;20468;-74
2023/10/07 09:35:25;;;;;;;17.60;8.33;;;21.40;91.50;;;;;;4955227;29;20031;-73
2023/10/07 09:37:59;;;;;;;16.90;7.15;;;21.40;91.80;;;;;;4954770;29;20150;-74
2023/10/07 09:43:33;;;;;;;18.13;7.43;;;21.80;91.40;;;;;;4868415;29;20037;-73
2023/10/07 09:45:58;;;;;;;12.98;6.47;;;21.90;91.30;;;;;;4877000;29;20033;-74
2023/10/07 09:48:33;;;;;;;9.05;4.00;;;21.90;88.70;;;;;;4877547;29;20214;-74
2023/10/07 09:50:59;;;;;;;7.60;3.80;;;22.10;89.20;;;;;;4877297;29;20037;-74
2023/10/07 09:53:43;;;;;;;9.57;4.55;;;22.20;82.50;;;;;;4877393;29;20181;-73
2023/10/07 09:56:43;;;;;;;13.80;5.43;;;22.20;81.70;;;;;;4866914;29;20029;-74
2023/10/07 09:59:32;;;;;;;10.35;4.90;;;22.10;82.90;;;;;;4864944;29;20442;-73
2023/10/07 10:02:16;;;;;;;12.43;4.72;;;22.10;84.30;;;;;;4876956;29;20064;-73
2023/10/07 10:05:26;;;;;;;10.30;4.53;;;22.30;85.50;;;;;;4877201;29;20105;-74
2023/10/07 10:08:11;;;;;;;9.65;4.55;;;22.30;82.80;;;;;;4877310;29;20128;-74
2023/10/07 10:10:44;;;;;;;9.38;4.97;;;22.30;82.00;;;;;;4877064;29;20394;-73
2023/10/07 10:16:14;;;;;;;10.73;4.88;;;22.40;81.00;;;;;;4947136;29;20459;-73
2023/10/07 10:18:51;;;;;;;14.07;5.60;;;22.30;80.00;;;;;;4942321;29;20061;-73
2023/10/07 10:21:22;;;;;;;15.00;5.93;;;22.30;80.20;;;;;;4942119;29;20459;-73
2023/10/07 10:23:51;;;;;;;20.23;5.70;;;22.30;80.70;;;;;;4928274;29;20032;-74
2023/10/07 10:26:26;;;;;;;12.60;5.53;;;22.10;78.80;;;;;;4944011;29;20039;-73
2023/10/07 10:29:03;;;;;;;13.77;5.82;;;22.20;81.40;;;;;;4941952;29;20027;-73
2023/10/07 10:31:37;;;;;;;11.73;5.10;;;22.30;79.90;;;;;;4943068;29;20040;-73
2023/10/07 10:34:08;;;;;;;9.98;3.45;;;22.50;82.40;;;;;;4941707;29;20118;-73
2023/10/07 10:36:41;;;;;;;9.57;3.27;;;22.30;78.20;;;;;;4954186;29;20118;-73
2023/10/07 10:39:25;;;;;;;11.25;4.38;;;22.50;79.30;;;;;;4954576;29;20089;-73
2023/10/07 10:41:53;;;;;;;8.65;4.20;;;22.60;80.00;;;;;;4953942;29;20502;-74
2023/10/07 10:44:20;;;;;;;10.65;4.00;;;22.40;77.00;;;;;;4954416;29;20046;-73
2023/10/07 10:46:48;;;;;;;10.43;4.10;;;22.40;77.70;;;;;;4954010;29;20071;-73
2023/10/07 10:49:20;;;;;;;14.35;4.43;;;22.40;78.50;;;;;;4954473;29;20111;-73
2023/10/07 10:51:48;;;;;;;9.63;3.97;;;22.30;79.90;;;;;;4954079;28;20077;-73
2023/10/07 10:54:21;;;;;;;9.57;3.58;;;22.20;78.70;;;;;;4958029;29;20025;-73
2023/10/07 10:56:47;;;;;;;8.15;4.25;;;22.20;79.10;;;;;;4946078;29;20031;-73
2023/10/07 10:59:14;;;;;;;8.43;3.90;;;22.20;79.70;;;;;;4956708;29;20039;-73
2023/10/07 11:01:44;;;;;;;9.90;3.90;;;22.30;76.90;;;;;;4946503;29;20034;-73
2023/10/07 11:04:13;;;;;;;9.00;4.05;;;22.40;75.10;;;;;;4945417;29;20124;-73
2023/10/07 11:06:41;;;;;;;9.23;3.95;;;22.60;76.40;;;;;;4948792;29;20031;-73
2023/10/07 11:09:09;;;;;;;9.95;4.30;;;22.70;76.60;;;;;;4951301;29;20498;-72
2023/10/07 11:11:35;;;;;;;6.45;3.13;;;22.80;75.70;;;;;;4948766;29;20019;-73
2023/10/07 11:14:13;;;;;;;11.63;4.00;;;22.90;74.80;;;;;;4944801;29;20383;-73
2023/10/07 11:16:49;;;;;;;9.88;3.88;;;22.80;74.20;;;;;;4945418;29;20035;-73
2023/10/07 11:19:15;;;;;;;7.75;3.65;;;22.90;74.40;;;;;;4957452;29;20096;-73
2023/10/07 11:21:44;;;;;;;8.15;3.60;;;22.90;74.00;;;;;;4944819;29;20032;-73
2023/10/07 11:24:14;;;;;;;9.70;3.35;;;22.90;72.20;;;;;;4948885;29;20489;-73
2023/10/07 11:26:43;;;;;;;8.77;3.60;;;22.90;73.60;;;;;;4949740;29;20023;-73
2023/10/07 11:29:15;;;;;;;7.32;3.13;;;22.90;71.70;;;;;;4944674;29;20364;-73
2023/10/07 11:31:41;;;;;;;;;;;22.80;72.70;;;;;;4957437;29;20023;-74
2023/10/07 11:34:10;;;;;;;7.63;3.15;;;23.00;72.60;;;;;;4957100;29;19921;-74
2023/10/07 11:37:14;;;;;;;6.45;3.35;;;23.10;74.10;;;;;;4957142;29;20051;-74
2023/10/07 11:39:44;;;;;;;10.43;2.97;;;23.10;73.90;;;;;;4947628;29;20035;-73
2023/10/07 11:42:23;;;;;;;5.97;3.00;;;23.20;72.10;;;;;;4944422;29;20027;-73
2023/10/07 11:44:54;;;;;;;5.30;2.78;;;23.20;67.30;;;;;;4951735;28;20038;-73
2023/10/07 11:47:20;;;;;;;7.30;2.78;;;23.20;71.80;;;;;;4944320;29;20504;-73
2023/10/07 11:49:47;;;;;;;6.88;3.15;;;23.20;68.40;;;;;;4948374;29;20095;-74
2023/10/07 11:52:17;;;;;;;8.73;2.97;;;23.20;67.30;;;;;;4949702;29;20071;-73
2023/10/07 11:54:43;;;;;;;7.38;3.40;;;23.20;67.30;;;;;;4953881;29;20029;-74
2023/10/07 11:57:10;;;;;;;7.65;2.70;;;23.20;67.30;;;;;;4955938;29;20030;-73
2023/10/07 11:59:41;;;;;;;5.78;2.70;;;23.20;67.70;;;;;;4953269;29;20078;-73
2023/10/07 12:02:10;;;;;;;5.63;2.90;;;23.20;67.30;;;;;;4939329;29;20183;-74
2023/10/07 12:04:46;;;;;;;5.60;2.60;;;23.20;68.40;;;;;;4955820;28;20027;-73
2023/10/07 12:07:14;;;;;;;9.68;3.30;;;23.30;66.90;;;;;;4952549;29;20086;-73
2023/10/07 12:09:41;;;;;;;8.82;3.08;;;23.50;68.00;;;;;;4956564;29;20019;-73
2023/10/07 12:12:10;;;;;;;12.02;3.13;;;23.50;66.40;;;;;;4956540;29;20479;-73
2023/10/07 12:14:36;;;;;;;5.63;2.63;;;23.70;69.40;;;;;;4956417;29;20490;-72
2023/10/07 12:17:04;;;;;;;8.07;3.30;;;24.30;68.90;;;;;;4952738;29;20043;-73
2023/10/07 12:19:35;;;;;;;6.10;3.33;;;;;;;;;;4953274;29;20066;-73
2023/10/07 12:22:04;;;;;;;8.27;3.00;;;23.70;67.60;;;;;;4956135;29;20051;-73
2023/10/07 12:24:31;;;;;;;8.50;3.38;;;23.80;68.40;;;;;;4949855;29;20033;-73
2023/10/07 12:26:57;;;;;;;10.50;4.00;;;23.90;68.20;;;;;;4951793;29;20039;-74
2023/10/07 12:29:25;;;;;;;7.30;3.05;;;23.80;69.50;;;;;;4955941;29;20031;-74
2023/10/07 12:31:51;;;;;;;7.78;3.30;;;23.80;67.40;;;;;;4951288;29;20042;-73
2023/10/07 12:34:18;;;;;;;8.20;3.83;;;23.70;67.10;;;;;;4949404;29;20024;-73
2023/10/07 12:36:44;;;;;;;6.13;3.35;;;23.70;69.70;;;;;;4951125;28;20026;-74
2023/10/07 12:39:14;;;;;;;9.43;3.35;;;23.80;69.70;;;;;;4939725;29;20059;-73
2023/10/07 12:41:43;;;;;;;10.50;3.60;;;23.90;69.80;;;;;;4942435;29;20028;-73
2023/10/07 12:44:10;;;;;;;9.25;3.78;;;;;;;;;;4954049;29;20027;-73
2023/10/07 12:46:41;;;;;;;6.13;3.13;;;23.90;65.80;;;;;;4931250;29;20492;-73
2023/10/07 12:49:13;;;;;;;6.20;2.92;;;24.00;66.80;;;;;;4952191;29;20066;-77
2023/10/07 12:51:46;;;;;;;9.77;3.40;;;23.90;66.00;;;;;;4943169;29;20494;-73
2023/10/07 12:54:12;;;;;;;8.75;3.25;;;23.80;66.60;;;;;;4952284;29;20039;-72
2023/10/07 12:56:42;;;;;;;6.30;3.03;;;23.90;66.20;;;;;;4944448;29;20023;-71
2023/10/07 12:59:18;;;;;;;11.27;3.67;;;23.90;65.80;;;;;;4945468;29;20031;-75
2023/10/07 13:01:59;;;;;;;7.72;3.38;;;24.00;68.00;;;;;;4952614;28;20539;-74
2023/10/07 13:04:25;;;;;;;12.60;4.53;;;;;;;;;;4948243;29;20031;-72
2023/10/07 13:07:05;;;;;;;10.65;3.92;;;24.20;86.80;;;;;;4955003;28;20368;-71
2023/10/07 13:09:31;;;;;;;6.53;2.85;;;24.10;68.60;;;;;;4949363;29;20131;-79
2023/10/07 13:11:58;;;;;;;7.13;3.15;;;;;;;;;;4955448;29;20034;-73
2023/10/07 13:14:28;;;;;;;9.98;3.65;;;24.20;80.50;;;;;;4954770;29;20447;-73
2023/10/07 13:16:56;;;;;;;11.70;3.53;;;24.30;69.20;;;;;;4951006;29;20031;-73
2023/10/07 13:19:35;;;;;;;7.40;3.50;;;24.20;65.10;;;;;;4955188;29;20483;-74
2023/10/07 13:22:05;;;;;;;11.75;3.70;;;24.30;66.70;;;;;;4952834;29;20058;-74
2023/10/07 13:24:34;;;;;;;7.97;3.53;;;24.30;65.50;;;;;;4955711;28;20031;-72
2023/10/07 13:27:04;;;;;;;9.73;4.00;;;24.30;64.50;;;;;;4942234;28;20028;-71
2023/10/07 13:29:34;;;;;;;10.00;3.47;;;24.20;70.40;;;;;;4954063;29;20027;-71
2023/10/07 13:32:03;;;;;;;7.15;3.00;;;24.40;67.70;;;;;;4954589;29;20031;-74
2023/10/07 13:34:31;;;;;;;9.68;3.53;;;24.40;66.00;;;;;;4954951;29;20027;-77
2023/10/07 13:36:57;;;;;;;9.80;3.50;;;24.40;64.20;;;;;;4955145;29;20526;-74
2023/10/07 13:39:24;;;;;;;12.32;3.70;;;24.40;63.70;;;;;;4955224;29;20114;-85
2023/10/07 13:41:52;;;;;;;8.57;4.22;;;24.40;62.70;;;;;;4955642;29;20031;-77
2023/10/07 13:44:19;;;;;;;7.60;4.00;;;24.50;64.70;;;;;;4955193;29;20094;-79
2023/10/07 13:46:45;;;;;;;10.65;3.63;;;24.50;64.30;;;;;;4956914;29;20055;-77
2023/10/07 13:49:13;;;;;;;9.30;3.95;;;24.50;63.90;;;;;;4937005;29;20041;-76
2023/10/07 13:51:43;;;;;;;13.43;3.38;;;24.50;62.90;;;;;;4938329;29;20501;-75